sensor_id;sensor_type;location;lat;lon;timestamp;temperature;humidity
25352;DHT22;13304;48.464;8.712;2022-09-20T00:00:06;11.60;78.60
25352;DHT22;13304;48.464;8.712;2022-09-20T00:02:32;11.60;78.70
25352;DHT22;13304;48.464;8.712;2022-09-20T00:04:58;11.60;78.70
25352;DHT22;13304;48.464;8.712;2022-09-20T00:07:23;11.60;78.70
25352;DHT22;13304;48.464;8.712;2022-09-20T00:09:49;11.60;78.70
25352;DHT22;13304;48.464;8.712;2022-09-20T00:12:15;11.60;78.70
25352;DHT22;13304;48.464;8.712;2022-09-20T00:14:40;11.60;78.50
25352;DHT22;13304;48.464;8.712;2022-09-20T00:17:06;11.60;78.50
25352;DHT22;13304;48.464;8.712;2022-09-20T00:19:32;11.60;78.40
25352;DHT22;13304;48.464;8.712;2022-09-20T00:21:58;11.60;78.50
25352;DHT22;13304;48.464;8.712;2022-09-20T00:24:24;11.60;78.40
25352;DHT22;13304;48.464;8.712;2022-09-20T00:26:50;11.60;78.30
25352;DHT22;13304;48.464;8.712;2022-09-20T00:29:16;11.60;78.40
25352;DHT22;13304;48.464;8.712;2022-09-20T00:31:42;11.50;78.30
25352;DHT22;13304;48.464;8.712;2022-09-20T00:34:09;11.50;78.30
25352;DHT22;13304;48.464;8.712;2022-09-20T00:36:54;11.50;78.40
25352;DHT22;13304;48.464;8.712;2022-09-20T00:39:19;11.50;78.40
25352;DHT22;13304;48.464;8.712;2022-09-20T00:41:45;11.40;78.30
25352;DHT22;13304;48.464;8.712;2022-09-20T00:47:04;11.40;78.80
25352;DHT22;13304;48.464;8.712;2022-09-20T00:49:33;11.40;78.80
25352;DHT22;13304;48.464;8.712;2022-09-20T00:52:01;11.40;78.80
25352;DHT22;13304;48.464;8.712;2022-09-20T00:54:27;11.40;78.60
25352;DHT22;13304;48.464;8.712;2022-09-20T00:56:54;11.40;78.60
25352;DHT22;13304;48.464;8.712;2022-09-20T01:01:51;11.40;78.50
25352;DHT22;13304;48.464;8.712;2022-09-20T01:04:21;11.30;78.40
25352;DHT22;13304;48.464;8.712;2022-09-20T01:06:51;11.30;78.30
25352;DHT22;13304;48.464;8.712;2022-09-20T01:09:18;11.30;78.30
25352;DHT22;13304;48.464;8.712;2022-09-20T01:11:44;11.30;78.40
25352;DHT22;13304;48.464;8.712;2022-09-20T01:14:12;11.20;78.40
25352;DHT22;13304;48.464;8.712;2022-09-20T01:16:40;11.20;78.40
25352;DHT22;13304;48.464;8.712;2022-09-20T01:19:25;11.20;78.50
25352;DHT22;13304;48.464;8.712;2022-09-20T01:21:54;11.10;78.60
25352;DHT22;13304;48.464;8.712;2022-09-20T01:24:21;11.10;78.60
25352;DHT22;13304;48.464;8.712;2022-09-20T01:30:04;11.00;78.50
25352;DHT22;13304;48.464;8.712;2022-09-20T01:32:43;11.00;78.50
25352;DHT22;13304;48.464;8.712;2022-09-20T01:35:11;11.00;78.50
25352;DHT22;13304;48.464;8.712;2022-09-20T01:38:26;11.00;78.60
25352;DHT22;13304;48.464;8.712;2022-09-20T01:43:33;10.90;78.70
25352;DHT22;13304;48.464;8.712;2022-09-20T01:46:08;10.90;78.70
25352;DHT22;13304;48.464;8.712;2022-09-20T01:48:38;10.90;78.80
25352;DHT22;13304;48.464;8.712;2022-09-20T02:08:07;10.80;79.30
25352;DHT22;13304;48.464;8.712;2022-09-20T02:11:02;10.80;79.30
25352;DHT22;13304;48.464;8.712;2022-09-20T02:13:32;10.80;79.20
25352;DHT22;13304;48.464;8.712;2022-09-20T02:28:04;10.80;79.00
25352;DHT22;13304;48.464;8.712;2022-09-20T02:30:54;10.80;78.90
25352;DHT22;13304;48.464;8.712;2022-09-20T02:41:50;10.70;78.90
25352;DHT22;13304;48.464;8.712;2022-09-20T02:44:35;10.70;79.00
25352;DHT22;13304;48.464;8.712;2022-09-20T02:47:35;10.70;79.10
25352;DHT22;13304;48.464;8.712;2022-09-20T02:50:13;10.70;79.10
25352;DHT22;13304;48.464;8.712;2022-09-20T03:12:02;10.50;79.10
25352;DHT22;13304;48.464;8.712;2022-09-20T03:14:31;10.50;79.10
25352;DHT22;13304;48.464;8.712;2022-09-20T03:25:49;10.40;78.70
25352;DHT22;13304;48.464;8.712;2022-09-20T03:42:01;10.20;79.40
25352;DHT22;13304;48.464;8.712;2022-09-20T03:59:28;10.10;79.30
25352;DHT22;13304;48.464;8.712;2022-09-20T04:04:55;10.10;79.30
25352;DHT22;13304;48.464;8.712;2022-09-20T04:07:56;10.10;79.10
25352;DHT22;13304;48.464;8.712;2022-09-20T04:13:41;10.10;79.00
25352;DHT22;13304;48.464;8.712;2022-09-20T04:16:40;10.00;79.00
25352;DHT22;13304;48.464;8.712;2022-09-20T04:21:47;10.00;79.00
25352;DHT22;13304;48.464;8.712;2022-09-20T04:27:04;9.90;79.00
25352;DHT22;13304;48.464;8.712;2022-09-20T04:29:37;9.90;79.00
25352;DHT22;13304;48.464;8.712;2022-09-20T04:32:23;9.90;79.10
25352;DHT22;13304;48.464;8.712;2022-09-20T04:35:01;9.80;79.40
25352;DHT22;13304;48.464;8.712;2022-09-20T04:37:46;9.80;79.70
25352;DHT22;13304;48.464;8.712;2022-09-20T04:43:06;9.80;80.20
25352;DHT22;13304;48.464;8.712;2022-09-20T05:00:47;9.80;80.50
25352;DHT22;13304;48.464;8.712;2022-09-20T05:06:12;9.90;81.00
25352;DHT22;13304;48.464;8.712;2022-09-20T05:28:18;10.20;81.80
25352;DHT22;13304;48.464;8.712;2022-09-20T05:30:53;10.20;81.80
25352;DHT22;13304;48.464;8.712;2022-09-20T05:34:21;10.30;82.00
25352;DHT22;13304;48.464;8.712;2022-09-20T05:37:05;10.30;82.00
25352;DHT22;13304;48.464;8.712;2022-09-20T05:42:36;10.40;82.10
25352;DHT22;13304;48.464;8.712;2022-09-20T05:48:16;10.40;82.50
25352;DHT22;13304;48.464;8.712;2022-09-20T05:50:56;10.40;81.70
25352;DHT22;13304;48.464;8.712;2022-09-20T06:02:41;10.60;82.50
25352;DHT22;13304;48.464;8.712;2022-09-20T06:05:14;10.60;82.70
25352;DHT22;13304;48.464;8.712;2022-09-20T06:11:01;10.70;83.00
25352;DHT22;13304;48.464;8.712;2022-09-20T06:13:47;10.80;83.10
25352;DHT22;13304;48.464;8.712;2022-09-20T06:16:27;10.80;83.20
25352;DHT22;13304;48.464;8.712;2022-09-20T06:19:18;10.90;83.40
25352;DHT22;13304;48.464;8.712;2022-09-20T06:21:53;10.90;83.20
25352;DHT22;13304;48.464;8.712;2022-09-20T06:27:15;11.00;82.90
25352;DHT22;13304;48.464;8.712;2022-09-20T06:29:50;11.10;83.10
25352;DHT22;13304;48.464;8.712;2022-09-20T06:32:17;11.10;83.10
25352;DHT22;13304;48.464;8.712;2022-09-20T06:34:43;11.20;83.10
25352;DHT22;13304;48.464;8.712;2022-09-20T06:40:26;11.20;83.20
25352;DHT22;13304;48.464;8.712;2022-09-20T06:43:11;11.20;83.50
25352;DHT22;13304;48.464;8.712;2022-09-20T06:45:39;11.30;83.60
25352;DHT22;13304;48.464;8.712;2022-09-20T06:48:06;11.30;84.20
25352;DHT22;13304;48.464;8.712;2022-09-20T06:50:38;11.40;83.30
25352;DHT22;13304;48.464;8.712;2022-09-20T06:53:04;11.40;83.00
25352;DHT22;13304;48.464;8.712;2022-09-20T06:55:34;11.40;82.80
25352;DHT22;13304;48.464;8.712;2022-09-20T06:58:02;11.40;82.50
25352;DHT22;13304;48.464;8.712;2022-09-20T07:00:28;11.40;82.40
25352;DHT22;13304;48.464;8.712;2022-09-20T07:02:54;11.40;82.50
25352;DHT22;13304;48.464;8.712;2022-09-20T07:05:21;11.40;82.40
25352;DHT22;13304;48.464;8.712;2022-09-20T07:07:48;11.30;82.10
25352;DHT22;13304;48.464;8.712;2022-09-20T07:10:14;11.30;82.00
25352;DHT22;13304;48.464;8.712;2022-09-20T07:12:41;11.30;82.10
25352;DHT22;13304;48.464;8.712;2022-09-20T07:15:07;11.30;82.50
25352;DHT22;13304;48.464;8.712;2022-09-20T07:17:33;11.20;82.80
25352;DHT22;13304;48.464;8.712;2022-09-20T07:19:59;11.30;83.30
25352;DHT22;13304;48.464;8.712;2022-09-20T07:22:26;11.30;83.60
25352;DHT22;13304;48.464;8.712;2022-09-20T07:24:51;11.30;84.10
25352;DHT22;13304;48.464;8.712;2022-09-20T07:27:17;11.30;84.50
25352;DHT22;13304;48.464;8.712;2022-09-20T07:29:43;11.40;85.00
25352;DHT22;13304;48.464;8.712;2022-09-20T07:32:10;11.40;85.20
25352;DHT22;13304;48.464;8.712;2022-09-20T07:34:36;11.50;85.60
25352;DHT22;13304;48.464;8.712;2022-09-20T07:37:02;11.50;85.90
25352;DHT22;13304;48.464;8.712;2022-09-20T07:39:28;11.60;86.20
25352;DHT22;13304;48.464;8.712;2022-09-20T07:41:54;11.70;86.30
25352;DHT22;13304;48.464;8.712;2022-09-20T07:44:20;11.80;86.40
25352;DHT22;13304;48.464;8.712;2022-09-20T07:46:57;11.80;86.40
25352;DHT22;13304;48.464;8.712;2022-09-20T07:49:24;11.90;86.50
25352;DHT22;13304;48.464;8.712;2022-09-20T07:51:52;12.00;86.50
25352;DHT22;13304;48.464;8.712;2022-09-20T07:54:19;12.10;86.60
25352;DHT22;13304;48.464;8.712;2022-09-20T07:56:45;12.20;86.90
25352;DHT22;13304;48.464;8.712;2022-09-20T07:59:11;12.30;87.80
25352;DHT22;13304;48.464;8.712;2022-09-20T08:01:38;12.30;87.80
25352;DHT22;13304;48.464;8.712;2022-09-20T08:04:05;12.40;87.60
25352;DHT22;13304;48.464;8.712;2022-09-20T08:06:35;12.50;88.50
25352;DHT22;13304;48.464;8.712;2022-09-20T08:09:03;12.60;87.50
25352;DHT22;13304;48.464;8.712;2022-09-20T08:11:29;12.80;87.40
25352;DHT22;13304;48.464;8.712;2022-09-20T08:13:57;12.90;87.30
25352;DHT22;13304;48.464;8.712;2022-09-20T08:16:24;13.00;87.00
25352;DHT22;13304;48.464;8.712;2022-09-20T08:18:55;13.00;86.40
25352;DHT22;13304;48.464;8.712;2022-09-20T08:21:22;13.10;86.00
25352;DHT22;13304;48.464;8.712;2022-09-20T08:23:49;13.20;85.70
25352;DHT22;13304;48.464;8.712;2022-09-20T08:26:20;13.30;85.30
25352;DHT22;13304;48.464;8.712;2022-09-20T08:28:49;13.30;84.90
25352;DHT22;13304;48.464;8.712;2022-09-20T08:31:18;13.40;84.30
25352;DHT22;13304;48.464;8.712;2022-09-20T08:33:45;13.40;83.50
25352;DHT22;13304;48.464;8.712;2022-09-20T08:36:16;13.50;82.90
25352;DHT22;13304;48.464;8.712;2022-09-20T08:38:43;13.50;81.80
25352;DHT22;13304;48.464;8.712;2022-09-20T08:43:55;13.70;81.90
25352;DHT22;13304;48.464;8.712;2022-09-20T08:46:25;13.70;81.20
25352;DHT22;13304;48.464;8.712;2022-09-20T08:48:53;13.70;80.10
25352;DHT22;13304;48.464;8.712;2022-09-20T08:51:20;13.80;80.80
25352;DHT22;13304;48.464;8.712;2022-09-20T08:53:51;13.90;80.20
25352;DHT22;13304;48.464;8.712;2022-09-20T08:56:18;13.90;79.80
25352;DHT22;13304;48.464;8.712;2022-09-20T08:58:44;14.00;79.70
25352;DHT22;13304;48.464;8.712;2022-09-20T09:01:22;14.00;79.30
25352;DHT22;13304;48.464;8.712;2022-09-20T09:03:58;14.10;78.30
25352;DHT22;13304;48.464;8.712;2022-09-20T09:06:26;14.10;78.00
25352;DHT22;13304;48.464;8.712;2022-09-20T09:08:54;14.20;77.50
25352;DHT22;13304;48.464;8.712;2022-09-20T09:11:21;14.30;77.40
25352;DHT22;13304;48.464;8.712;2022-09-20T09:14:04;14.40;78.30
25352;DHT22;13304;48.464;8.712;2022-09-20T09:16:51;14.40;77.80
25352;DHT22;13304;48.464;8.712;2022-09-20T09:19:27;14.50;71.90
25352;DHT22;13304;48.464;8.712;2022-09-20T09:21:59;14.60;69.20
25352;DHT22;13304;48.464;8.712;2022-09-20T09:24:26;14.60;68.00
25352;DHT22;13304;48.464;8.712;2022-09-20T09:27:13;14.70;69.00
25352;DHT22;13304;48.464;8.712;2022-09-20T09:29:56;14.80;69.50
25352;DHT22;13304;48.464;8.712;2022-09-20T09:32:23;14.80;69.30
25352;DHT22;13304;48.464;8.712;2022-09-20T09:34:49;14.90;69.20
25352;DHT22;13304;48.464;8.712;2022-09-20T09:37:41;14.90;69.10
25352;DHT22;13304;48.464;8.712;2022-09-20T09:40:17;14.80;68.70
25352;DHT22;13304;48.464;8.712;2022-09-20T09:42:53;15.00;70.90
25352;DHT22;13304;48.464;8.712;2022-09-20T09:45:31;15.00;71.30
25352;DHT22;13304;48.464;8.712;2022-09-20T09:48:17;15.00;70.50
25352;DHT22;13304;48.464;8.712;2022-09-20T09:50:43;15.00;70.40
25352;DHT22;13304;48.464;8.712;2022-09-20T09:53:13;15.10;70.60
25352;DHT22;13304;48.464;8.712;2022-09-20T09:58:35;15.20;69.40
25352;DHT22;13304;48.464;8.712;2022-09-20T10:01:05;15.30;70.30
25352;DHT22;13304;48.464;8.712;2022-09-20T10:14:24;15.80;64.10
25352;DHT22;13304;48.464;8.712;2022-09-20T10:17:00;15.90;64.10
25352;DHT22;13304;48.464;8.712;2022-09-20T10:25:46;16.00;62.50
25352;DHT22;13304;48.464;8.712;2022-09-20T10:28:33;16.00;62.60
25352;DHT22;13304;48.464;8.712;2022-09-20T10:31:15;16.00;62.70
25352;DHT22;13304;48.464;8.712;2022-09-20T10:36:55;16.00;62.40
25352;DHT22;13304;48.464;8.712;2022-09-20T10:39:40;16.00;60.50
25352;DHT22;13304;48.464;8.712;2022-09-20T10:48:07;16.00;61.10
25352;DHT22;13304;48.464;8.712;2022-09-20T10:50:43;16.00;61.80
25352;DHT22;13304;48.464;8.712;2022-09-20T11:10:21;16.20;61.00
25352;DHT22;13304;48.464;8.712;2022-09-20T11:13:01;16.20;60.20
25352;DHT22;13304;48.464;8.712;2022-09-20T11:15:43;16.20;61.10
25352;DHT22;13304;48.464;8.712;2022-09-20T11:18:36;16.20;61.50
25352;DHT22;13304;48.464;8.712;2022-09-20T11:21:07;16.10;61.50
25352;DHT22;13304;48.464;8.712;2022-09-20T11:23:52;16.10;61.80
25352;DHT22;13304;48.464;8.712;2022-09-20T11:26:39;16.10;61.50
25352;DHT22;13304;48.464;8.712;2022-09-20T11:32:31;16.00;60.30
25352;DHT22;13304;48.464;8.712;2022-09-20T11:38:32;16.00;59.70
25352;DHT22;13304;48.464;8.712;2022-09-20T11:41:13;16.00;61.20
25352;DHT22;13304;48.464;8.712;2022-09-20T11:43:40;16.10;61.20
25352;DHT22;13304;48.464;8.712;2022-09-20T11:46:19;16.10;62.20
25352;DHT22;13304;48.464;8.712;2022-09-20T11:48:53;16.10;60.30
25352;DHT22;13304;48.464;8.712;2022-09-20T11:51:47;16.20;61.10
25352;DHT22;13304;48.464;8.712;2022-09-20T11:54:40;16.20;60.40
25352;DHT22;13304;48.464;8.712;2022-09-20T11:57:14;16.20;60.70
25352;DHT22;13304;48.464;8.712;2022-09-20T11:59:43;16.30;60.60
25352;DHT22;13304;48.464;8.712;2022-09-20T12:02:39;16.30;60.40
25352;DHT22;13304;48.464;8.712;2022-09-20T12:05:19;16.30;59.60
25352;DHT22;13304;48.464;8.712;2022-09-20T12:07:52;16.30;61.00
25352;DHT22;13304;48.464;8.712;2022-09-20T12:10:34;16.30;60.40
25352;DHT22;13304;48.464;8.712;2022-09-20T12:13:06;16.30;59.80
25352;DHT22;13304;48.464;8.712;2022-09-20T12:15:37;16.40;60.90
25352;DHT22;13304;48.464;8.712;2022-09-20T12:26:35;16.30;59.80
25352;DHT22;13304;48.464;8.712;2022-09-20T12:31:53;16.30;59.80
25352;DHT22;13304;48.464;8.712;2022-09-20T12:41:57;16.50;58.90
25352;DHT22;13304;48.464;8.712;2022-09-20T13:11:11;16.60;56.60
25352;DHT22;13304;48.464;8.712;2022-09-20T13:16:19;16.50;57.90
25352;DHT22;13304;48.464;8.712;2022-09-20T13:18:49;16.60;58.20
25352;DHT22;13304;48.464;8.712;2022-09-20T13:21:21;16.60;58.60
25352;DHT22;13304;48.464;8.712;2022-09-20T13:23:49;16.60;57.90
25352;DHT22;13304;48.464;8.712;2022-09-20T13:26:21;16.60;58.40
25352;DHT22;13304;48.464;8.712;2022-09-20T13:28:51;16.60;57.70
25352;DHT22;13304;48.464;8.712;2022-09-20T13:31:25;16.70;57.70
25352;DHT22;13304;48.464;8.712;2022-09-20T13:33:51;16.70;56.70
25352;DHT22;13304;48.464;8.712;2022-09-20T13:36:27;16.70;57.80
25352;DHT22;13304;48.464;8.712;2022-09-20T13:38:55;16.70;55.90
25352;DHT22;13304;48.464;8.712;2022-09-20T13:41:23;16.70;55.90
25352;DHT22;13304;48.464;8.712;2022-09-20T13:43:51;16.80;56.90
25352;DHT22;13304;48.464;8.712;2022-09-20T13:46:22;16.70;57.50
25352;DHT22;13304;48.464;8.712;2022-09-20T13:48:53;16.80;57.60
25352;DHT22;13304;48.464;8.712;2022-09-20T13:51:25;16.80;56.20
25352;DHT22;13304;48.464;8.712;2022-09-20T13:53:51;16.80;57.10
25352;DHT22;13304;48.464;8.712;2022-09-20T13:56:23;16.80;57.50
25352;DHT22;13304;48.464;8.712;2022-09-20T13:58:50;16.80;55.60
25352;DHT22;13304;48.464;8.712;2022-09-20T14:01:31;16.80;56.70
25352;DHT22;13304;48.464;8.712;2022-09-20T14:04:13;16.80;55.10
25352;DHT22;13304;48.464;8.712;2022-09-20T14:06:39;16.70;55.00
25352;DHT22;13304;48.464;8.712;2022-09-20T14:09:12;16.80;56.20
25352;DHT22;13304;48.464;8.712;2022-09-20T14:11:43;16.80;55.90
25352;DHT22;13304;48.464;8.712;2022-09-20T14:14:11;16.70;54.90
25352;DHT22;13304;48.464;8.712;2022-09-20T14:16:40;16.70;55.60
25352;DHT22;13304;48.464;8.712;2022-09-20T14:19:12;16.70;56.00
25352;DHT22;13304;48.464;8.712;2022-09-20T14:21:40;16.70;56.00
25352;DHT22;13304;48.464;8.712;2022-09-20T14:24:24;16.70;56.60
25352;DHT22;13304;48.464;8.712;2022-09-20T14:27:13;16.60;56.30
25352;DHT22;13304;48.464;8.712;2022-09-20T14:29:48;16.70;57.30
25352;DHT22;13304;48.464;8.712;2022-09-20T14:37:23;16.70;57.10
25352;DHT22;13304;48.464;8.712;2022-09-20T14:40:04;16.80;57.20
25352;DHT22;13304;48.464;8.712;2022-09-20T14:42:40;16.80;56.50
25352;DHT22;13304;48.464;8.712;2022-09-20T14:45:07;16.80;57.10
25352;DHT22;13304;48.464;8.712;2022-09-20T14:47:38;16.80;57.00
25352;DHT22;13304;48.464;8.712;2022-09-20T14:55:35;16.70;56.10
25352;DHT22;13304;48.464;8.712;2022-09-20T14:58:12;16.70;57.00
25352;DHT22;13304;48.464;8.712;2022-09-20T15:01:03;16.70;57.10
25352;DHT22;13304;48.464;8.712;2022-09-20T15:03:39;16.60;57.40
25352;DHT22;13304;48.464;8.712;2022-09-20T15:06:09;16.70;57.20
25352;DHT22;13304;48.464;8.712;2022-09-20T15:08:35;16.60;55.90
25352;DHT22;13304;48.464;8.712;2022-09-20T15:11:02;16.60;56.30
25352;DHT22;13304;48.464;8.712;2022-09-20T15:13:28;16.60;56.90
25352;DHT22;13304;48.464;8.712;2022-09-20T15:15:53;16.60;56.70
25352;DHT22;13304;48.464;8.712;2022-09-20T15:18:24;16.60;56.80
25352;DHT22;13304;48.464;8.712;2022-09-20T15:20:52;16.60;56.90
25352;DHT22;13304;48.464;8.712;2022-09-20T15:23:19;16.60;57.30
25352;DHT22;13304;48.464;8.712;2022-09-20T15:25:48;16.60;56.50
25352;DHT22;13304;48.464;8.712;2022-09-20T15:28:15;16.50;55.60
25352;DHT22;13304;48.464;8.712;2022-09-20T15:30:49;16.50;55.60
25352;DHT22;13304;48.464;8.712;2022-09-20T15:33:16;16.50;55.80
25352;DHT22;13304;48.464;8.712;2022-09-20T15:35:43;16.50;56.60
25352;DHT22;13304;48.464;8.712;2022-09-20T15:38:09;16.40;56.80
25352;DHT22;13304;48.464;8.712;2022-09-20T15:40:43;16.40;57.20
25352;DHT22;13304;48.464;8.712;2022-09-20T15:43:15;16.40;57.00
25352;DHT22;13304;48.464;8.712;2022-09-20T15:48:15;16.40;56.60
25352;DHT22;13304;48.464;8.712;2022-09-20T15:51:07;16.40;56.90
25352;DHT22;13304;48.464;8.712;2022-09-20T15:53:35;16.30;56.40
25352;DHT22;13304;48.464;8.712;2022-09-20T15:56:03;16.40;56.70
25352;DHT22;13304;48.464;8.712;2022-09-20T15:58:30;16.30;57.00
25352;DHT22;13304;48.464;8.712;2022-09-20T16:01:05;16.30;56.50
25352;DHT22;13304;48.464;8.712;2022-09-20T16:03:32;16.30;56.00
25352;DHT22;13304;48.464;8.712;2022-09-20T16:06:03;16.30;56.40
25352;DHT22;13304;48.464;8.712;2022-09-20T16:08:34;16.20;56.60
25352;DHT22;13304;48.464;8.712;2022-09-20T16:11:01;16.20;56.60
25352;DHT22;13304;48.464;8.712;2022-09-20T16:13:27;16.20;57.20
25352;DHT22;13304;48.464;8.712;2022-09-20T16:18:19;16.20;57.70
25352;DHT22;13304;48.464;8.712;2022-09-20T16:21:11;16.20;57.90
25352;DHT22;13304;48.464;8.712;2022-09-20T16:23:38;16.10;57.70
25352;DHT22;13304;48.464;8.712;2022-09-20T16:26:05;16.20;58.10
25352;DHT22;13304;48.464;8.712;2022-09-20T16:28:32;16.20;58.10
25352;DHT22;13304;48.464;8.712;2022-09-20T16:30:59;16.20;58.70
25352;DHT22;13304;48.464;8.712;2022-09-20T16:33:25;16.20;58.60
25352;DHT22;13304;48.464;8.712;2022-09-20T16:35:51;16.20;58.60
25352;DHT22;13304;48.464;8.712;2022-09-20T16:38:17;16.20;58.90
25352;DHT22;13304;48.464;8.712;2022-09-20T16:40:47;16.10;58.90
25352;DHT22;13304;48.464;8.712;2022-09-20T16:43:14;16.10;58.60
25352;DHT22;13304;48.464;8.712;2022-09-20T16:45:59;16.10;58.70
25352;DHT22;13304;48.464;8.712;2022-09-20T16:48:25;16.00;58.60
25352;DHT22;13304;48.464;8.712;2022-09-20T16:50:56;16.00;58.90
25352;DHT22;13304;48.464;8.712;2022-09-20T16:53:25;16.00;59.10
25352;DHT22;13304;48.464;8.712;2022-09-20T16:55:51;16.00;59.20
25352;DHT22;13304;48.464;8.712;2022-09-20T16:58:25;16.00;59.70
25352;DHT22;13304;48.464;8.712;2022-09-20T17:00:53;15.90;59.70
25352;DHT22;13304;48.464;8.712;2022-09-20T17:03:19;15.90;60.00
25352;DHT22;13304;48.464;8.712;2022-09-20T17:05:46;15.90;60.30
25352;DHT22;13304;48.464;8.712;2022-09-20T17:08:12;15.90;60.70
25352;DHT22;13304;48.464;8.712;2022-09-20T17:10:38;15.90;60.80
25352;DHT22;13304;48.464;8.712;2022-09-20T17:13:05;15.80;60.90
25352;DHT22;13304;48.464;8.712;2022-09-20T17:15:31;15.80;61.50
25352;DHT22;13304;48.464;8.712;2022-09-20T17:17:58;15.80;61.90
25352;DHT22;13304;48.464;8.712;2022-09-20T17:20:23;15.80;61.80
25352;DHT22;13304;48.464;8.712;2022-09-20T17:22:51;15.70;61.60
25352;DHT22;13304;48.464;8.712;2022-09-20T17:25:19;15.70;61.90
25352;DHT22;13304;48.464;8.712;2022-09-20T17:27:44;15.70;62.30
25352;DHT22;13304;48.464;8.712;2022-09-20T17:30:12;15.70;62.80
25352;DHT22;13304;48.464;8.712;2022-09-20T17:32:38;15.70;63.40
25352;DHT22;13304;48.464;8.712;2022-09-20T17:35:04;15.60;63.60
25352;DHT22;13304;48.464;8.712;2022-09-20T17:37:30;15.60;63.70
25352;DHT22;13304;48.464;8.712;2022-09-20T17:39:55;15.60;63.90
25352;DHT22;13304;48.464;8.712;2022-09-20T17:42:26;15.60;64.00
25352;DHT22;13304;48.464;8.712;2022-09-20T17:44:52;15.60;64.50
25352;DHT22;13304;48.464;8.712;2022-09-20T17:47:18;15.50;64.20
25352;DHT22;13304;48.464;8.712;2022-09-20T17:49:45;15.50;64.50
25352;DHT22;13304;48.464;8.712;2022-09-20T17:52:11;15.50;64.60
25352;DHT22;13304;48.464;8.712;2022-09-20T17:54:36;15.50;64.60
25352;DHT22;13304;48.464;8.712;2022-09-20T17:57:02;15.40;64.40
25352;DHT22;13304;48.464;8.712;2022-09-20T17:59:30;15.40;64.20
25352;DHT22;13304;48.464;8.712;2022-09-20T18:01:56;15.40;64.00
25352;DHT22;13304;48.464;8.712;2022-09-20T18:04:22;15.40;64.60
25352;DHT22;13304;48.464;8.712;2022-09-20T18:06:52;15.30;64.00
25352;DHT22;13304;48.464;8.712;2022-09-20T18:09:21;15.40;64.20
25352;DHT22;13304;48.464;8.712;2022-09-20T18:11:52;15.30;64.00
25352;DHT22;13304;48.464;8.712;2022-09-20T18:14:20;15.30;63.70
25352;DHT22;13304;48.464;8.712;2022-09-20T18:16:51;15.30;63.90
25352;DHT22;13304;48.464;8.712;2022-09-20T18:19:17;15.30;64.20
25352;DHT22;13304;48.464;8.712;2022-09-20T18:21:43;15.30;64.30
25352;DHT22;13304;48.464;8.712;2022-09-20T18:24:09;15.20;64.20
25352;DHT22;13304;48.464;8.712;2022-09-20T18:26:36;15.20;64.40
25352;DHT22;13304;48.464;8.712;2022-09-20T18:29:04;15.20;64.40
25352;DHT22;13304;48.464;8.712;2022-09-20T18:31:31;15.20;63.90
25352;DHT22;13304;48.464;8.712;2022-09-20T18:34:03;15.20;64.20
25352;DHT22;13304;48.464;8.712;2022-09-20T18:36:30;15.10;64.00
25352;DHT22;13304;48.464;8.712;2022-09-20T18:38:57;15.20;64.70
25352;DHT22;13304;48.464;8.712;2022-09-20T18:41:26;15.20;65.00
25352;DHT22;13304;48.464;8.712;2022-09-20T18:43:54;15.10;65.10
25352;DHT22;13304;48.464;8.712;2022-09-20T18:46:21;15.10;65.40
25352;DHT22;13304;48.464;8.712;2022-09-20T18:49:00;15.10;65.70
25352;DHT22;13304;48.464;8.712;2022-09-20T18:51:29;15.10;65.90
25352;DHT22;13304;48.464;8.712;2022-09-20T18:53:56;15.10;66.00
25352;DHT22;13304;48.464;8.712;2022-09-20T18:56:26;15.10;66.40
25352;DHT22;13304;48.464;8.712;2022-09-20T18:58:54;15.10;66.40
25352;DHT22;13304;48.464;8.712;2022-09-20T19:04:28;15.00;66.40
25352;DHT22;13304;48.464;8.712;2022-09-20T19:07:05;15.00;66.60
25352;DHT22;13304;48.464;8.712;2022-09-20T19:09:52;15.00;67.00
25352;DHT22;13304;48.464;8.712;2022-09-20T19:15:19;14.90;67.70
25352;DHT22;13304;48.464;8.712;2022-09-20T19:20:47;14.90;68.10
25352;DHT22;13304;48.464;8.712;2022-09-20T19:28:33;14.90;68.20
25352;DHT22;13304;48.464;8.712;2022-09-20T19:30:59;14.90;68.40
25352;DHT22;13304;48.464;8.712;2022-09-20T19:33:25;14.90;68.60
25352;DHT22;13304;48.464;8.712;2022-09-20T19:35:52;14.90;68.40
25352;DHT22;13304;48.464;8.712;2022-09-20T19:52:11;14.90;68.50
25352;DHT22;13304;48.464;8.712;2022-09-20T19:54:38;14.80;68.70
25352;DHT22;13304;48.464;8.712;2022-09-20T19:57:06;14.80;68.80
25352;DHT22;13304;48.464;8.712;2022-09-20T19:59:34;14.80;69.00
25352;DHT22;13304;48.464;8.712;2022-09-20T20:02:00;14.80;68.90
25352;DHT22;13304;48.464;8.712;2022-09-20T20:04:26;14.80;68.60
25352;DHT22;13304;48.464;8.712;2022-09-20T20:07:21;14.80;68.50
25352;DHT22;13304;48.464;8.712;2022-09-20T20:13:08;14.70;68.30
25352;DHT22;13304;48.464;8.712;2022-09-20T20:16:01;14.70;68.70
25352;DHT22;13304;48.464;8.712;2022-09-20T20:20:57;14.70;69.10
25352;DHT22;13304;48.464;8.712;2022-09-20T20:26:08;14.70;69.10
25352;DHT22;13304;48.464;8.712;2022-09-20T20:28:35;14.60;69.20
25352;DHT22;13304;48.464;8.712;2022-09-20T20:31:01;14.60;69.50
25352;DHT22;13304;48.464;8.712;2022-09-20T20:33:27;14.60;69.70
25352;DHT22;13304;48.464;8.712;2022-09-20T20:35:54;14.60;69.90
25352;DHT22;13304;48.464;8.712;2022-09-20T20:38:21;14.60;70.10
25352;DHT22;13304;48.464;8.712;2022-09-20T20:41:02;14.60;70.20
25352;DHT22;13304;48.464;8.712;2022-09-20T20:43:32;14.60;70.40
25352;DHT22;13304;48.464;8.712;2022-09-20T20:46:04;14.60;70.40
25352;DHT22;13304;48.464;8.712;2022-09-20T20:48:31;14.60;70.50
25352;DHT22;13304;48.464;8.712;2022-09-20T20:51:05;14.60;70.70
25352;DHT22;13304;48.464;8.712;2022-09-20T20:53:34;14.60;70.70
25352;DHT22;13304;48.464;8.712;2022-09-20T20:56:04;14.60;70.80
25352;DHT22;13304;48.464;8.712;2022-09-20T20:58:32;14.60;70.80
25352;DHT22;13304;48.464;8.712;2022-09-20T21:01:26;14.60;71.00
25352;DHT22;13304;48.464;8.712;2022-09-20T21:03:54;14.60;70.90
25352;DHT22;13304;48.464;8.712;2022-09-20T21:06:22;14.60;70.80
25352;DHT22;13304;48.464;8.712;2022-09-20T21:08:49;14.60;70.90
25352;DHT22;13304;48.464;8.712;2022-09-20T21:11:16;14.60;71.10
25352;DHT22;13304;48.464;8.712;2022-09-20T21:13:43;14.60;71.20
25352;DHT22;13304;48.464;8.712;2022-09-20T21:16:11;14.60;71.20
25352;DHT22;13304;48.464;8.712;2022-09-20T21:18:39;14.60;71.40
25352;DHT22;13304;48.464;8.712;2022-09-20T21:21:24;14.60;71.50
25352;DHT22;13304;48.464;8.712;2022-09-20T21:23:53;14.50;71.60
25352;DHT22;13304;48.464;8.712;2022-09-20T21:26:19;14.50;71.60
25352;DHT22;13304;48.464;8.712;2022-09-20T21:28:50;14.50;71.70
25352;DHT22;13304;48.464;8.712;2022-09-20T21:31:17;14.50;71.70
25352;DHT22;13304;48.464;8.712;2022-09-20T21:33:44;14.50;71.70